createdAt,value
2022-09-18T00:00:05.525Z,89.02
2022-09-18T00:02:31.920Z,88.36
2022-09-18T00:04:58.204Z,88.05
2022-09-18T00:07:24.536Z,87.39
2022-09-18T00:09:50.890Z,87.06
2022-09-18T00:12:17.226Z,86.44
2022-09-18T00:14:43.568Z,85.25
2022-09-18T00:17:09.900Z,85.12
2022-09-18T00:19:36.219Z,84.43
2022-09-18T00:22:02.575Z,83.68
2022-09-18T00:24:28.916Z,80.97
2022-09-18T00:26:55.255Z,80.92
2022-09-18T00:29:21.592Z,79.76
2022-09-18T00:31:47.961Z,78.46
2022-09-18T00:34:14.251Z,78.31
2022-09-18T00:36:40.584Z,77.69
2022-09-18T00:39:06.923Z,76.84
2022-09-18T00:41:33.280Z,75.76
2022-09-18T00:43:59.627Z,75.49
2022-09-18T00:46:25.997Z,74.95
2022-09-18T00:48:52.294Z,74.35
2022-09-18T00:51:18.630Z,73.51
2022-09-18T00:53:44.975Z,73.37
2022-09-18T00:56:11.291Z,72.90
2022-09-18T00:58:37.693Z,72.43
2022-09-18T01:01:04.056Z,72.27
2022-09-18T01:03:30.308Z,71.76
2022-09-18T01:05:56.664Z,71.42
2022-09-18T01:08:22.976Z,70.79
2022-09-18T01:10:49.315Z,70.22
2022-09-18T01:13:15.658Z,69.73
2022-09-18T01:15:42.058Z,69.39
2022-09-18T01:18:08.326Z,68.96
2022-09-18T01:20:34.666Z,68.69
2022-09-18T01:23:00.975Z,68.76
2022-09-18T01:25:27.320Z,68.83
2022-09-18T01:27:53.632Z,68.67
2022-09-18T01:30:19.958Z,68.43
2022-09-18T01:32:46.298Z,67.78
2022-09-18T01:35:30.146Z,67.77
2022-09-18T01:37:38.951Z,67.76
2022-09-18T01:40:05.320Z,67.37
2022-09-18T01:42:31.608Z,66.92
2022-09-18T01:44:57.954Z,67.09
2022-09-18T01:47:24.309Z,66.82
2022-09-18T01:49:50.629Z,66.07
2022-09-18T01:52:17.006Z,66.14
2022-09-18T01:54:43.365Z,65.88
2022-09-18T01:57:09.681Z,65.95
2022-09-18T01:59:36.002Z,66.44
2022-09-18T02:02:02.513Z,66.39
2022-09-18T02:04:28.678Z,66.25
2022-09-18T02:06:55.014Z,65.78
2022-09-18T02:09:21.333Z,65.91
2022-09-18T02:11:47.672Z,65.98
2022-09-18T02:14:14.015Z,65.84
2022-09-18T02:16:40.325Z,65.23
2022-09-18T02:19:06.802Z,65.15
2022-09-18T02:21:33.116Z,64.93
2022-09-18T02:23:59.510Z,65.05
2022-09-18T02:26:25.796Z,64.90
2022-09-18T02:28:52.133Z,64.88
2022-09-18T02:31:18.502Z,64.75
2022-09-18T02:33:44.792Z,64.79
2022-09-18T02:36:11.126Z,64.74
2022-09-18T02:38:37.469Z,64.68
2022-09-18T02:41:03.800Z,64.74
2022-09-18T02:43:30.176Z,64.83
2022-09-18T02:45:56.507Z,64.72
2022-09-18T02:48:22.824Z,64.94
2022-09-18T02:50:49.164Z,64.45
2022-09-18T02:53:15.540Z,64.16
2022-09-18T02:55:41.851Z,64.42
2022-09-18T02:58:08.171Z,64.59
2022-09-18T03:00:34.505Z,64.39
2022-09-18T03:03:00.877Z,64.45
2022-09-18T03:05:27.157Z,63.89
2022-09-18T03:07:53.520Z,63.65
2022-09-18T03:10:19.832Z,63.00
2022-09-18T03:12:46.176Z,62.26
2022-09-18T03:15:12.512Z,62.33
2022-09-18T03:17:38.852Z,62.19
2022-09-18T03:20:05.182Z,61.96
2022-09-18T03:22:31.541Z,62.12
2022-09-18T03:24:57.874Z,61.69
2022-09-18T03:27:24.193Z,61.96
2022-09-18T03:29:50.549Z,61.85
2022-09-18T03:32:16.863Z,61.95
2022-09-18T03:34:43.178Z,61.87
2022-09-18T03:37:09.558Z,61.79
2022-09-18T03:39:35.890Z,61.74
2022-09-18T03:42:02.207Z,62.01
2022-09-18T03:44:28.525Z,61.84
2022-09-18T03:46:54.901Z,62.05
2022-09-18T03:49:21.172Z,61.83
2022-09-18T03:51:47.515Z,61.47
2022-09-18T03:54:13.830Z,61.34
2022-09-18T03:56:40.149Z,61.61
2022-09-18T03:59:06.499Z,61.54
2022-09-18T04:01:32.885Z,61.42
2022-09-18T04:03:59.171Z,61.07
2022-09-18T04:06:25.491Z,60.95
2022-09-18T04:08:51.834Z,60.91
2022-09-18T04:11:18.148Z,60.54
2022-09-18T04:13:44.505Z,60.70
2022-09-18T04:16:10.873Z,60.90
2022-09-18T04:18:37.184Z,61.08
2022-09-18T04:21:03.524Z,61.00
2022-09-18T04:23:29.858Z,60.96
2022-09-18T04:25:56.182Z,61.05
2022-09-18T04:28:22.518Z,60.60
2022-09-18T04:30:48.879Z,61.05
2022-09-18T04:33:16.075Z,61.26
2022-09-18T04:35:41.553Z,61.62
2022-09-18T04:38:07.891Z,61.69
2022-09-18T04:40:34.317Z,62.16
2022-09-18T04:43:00.601Z,62.62
2022-09-18T04:45:26.938Z,62.76
2022-09-18T04:47:53.266Z,62.83
2022-09-18T04:50:19.583Z,63.13
2022-09-18T04:52:45.967Z,63.25
2022-09-18T04:55:12.310Z,63.23
2022-09-18T04:57:38.638Z,63.14
2022-09-18T05:00:04.959Z,63.41
2022-09-18T05:02:31.333Z,63.47
2022-09-18T05:04:57.672Z,63.29
2022-09-18T05:07:23.982Z,63.15
2022-09-18T05:09:50.351Z,63.06
2022-09-18T05:12:16.664Z,63.20
2022-09-18T05:14:42.987Z,63.22
2022-09-18T05:17:09.376Z,63.20
2022-09-18T05:19:35.709Z,63.12
2022-09-18T05:22:02.022Z,63.32
2022-09-18T05:24:28.386Z,63.44
2022-09-18T05:26:54.714Z,63.51
2022-09-18T05:29:21.036Z,63.32
2022-09-18T05:31:47.432Z,63.54
2022-09-18T05:34:13.717Z,63.84
2022-09-18T05:36:40.026Z,63.74
2022-09-18T05:39:06.351Z,63.76
2022-09-18T05:41:32.690Z,63.79
2022-09-18T05:43:59.027Z,63.73
2022-09-18T05:46:25.377Z,63.52
2022-09-18T05:48:51.888Z,63.14
2022-09-18T05:51:18.220Z,62.92
2022-09-18T05:53:44.538Z,63.00
2022-09-18T05:56:10.891Z,62.90
2022-09-18T05:58:37.209Z,62.89
2022-09-18T06:01:03.526Z,62.90
2022-09-18T06:03:29.892Z,62.70
2022-09-18T06:05:56.221Z,62.75
2022-09-18T06:08:22.542Z,62.30
2022-09-18T06:10:48.907Z,62.58
2022-09-18T06:13:15.224Z,62.87
2022-09-18T06:15:41.562Z,63.06
2022-09-18T06:18:07.908Z,63.14
2022-09-18T06:20:34.249Z,63.33
2022-09-18T06:23:00.581Z,63.21
2022-09-18T06:25:26.899Z,63.40
2022-09-18T06:27:53.241Z,63.18
2022-09-18T06:30:19.557Z,62.96
2022-09-18T06:32:45.900Z,63.00
2022-09-18T06:35:12.234Z,63.08
2022-09-18T06:37:38.578Z,62.59
2022-09-18T06:40:05.100Z,62.98
2022-09-18T06:42:31.226Z,62.84
2022-09-18T06:44:57.585Z,62.76
2022-09-18T06:47:23.925Z,62.53
2022-09-18T06:49:50.240Z,62.43
2022-09-18T06:52:16.566Z,62.44
2022-09-18T06:54:42.885Z,62.63
2022-09-18T06:57:09.206Z,62.64
2022-09-18T06:59:35.518Z,62.33
2022-09-18T07:02:01.966Z,62.13
2022-09-18T07:04:28.195Z,62.12
2022-09-18T07:06:54.534Z,62.08
2022-09-18T07:09:20.850Z,62.05
2022-09-18T07:11:47.189Z,62.27
2022-09-18T07:14:13.525Z,62.20
2022-09-18T07:16:39.892Z,62.06
2022-09-18T07:19:06.212Z,62.07
2022-09-18T07:21:32.553Z,61.70
2022-09-18T07:23:58.888Z,61.24
2022-09-18T07:26:25.224Z,61.66
2022-09-18T07:28:51.561Z,61.55
2022-09-18T07:31:17.926Z,61.34
2022-09-18T07:33:44.199Z,60.99
2022-09-18T07:36:10.521Z,60.55
2022-09-18T07:38:36.838Z,59.80
2022-09-18T07:41:03.174Z,59.19
2022-09-18T07:43:29.493Z,58.64
2022-09-18T07:45:55.834Z,58.48
2022-09-18T07:48:22.173Z,57.96
2022-09-18T07:50:48.491Z,57.23
2022-09-18T07:53:14.863Z,56.99
2022-09-18T07:55:41.181Z,57.30
2022-09-18T07:58:07.515Z,57.06
2022-09-18T08:00:33.855Z,57.07
2022-09-18T08:03:00.294Z,56.78
2022-09-18T08:05:26.561Z,56.26
2022-09-18T08:07:52.873Z,56.44
2022-09-18T08:10:19.191Z,56.23
2022-09-18T08:12:45.531Z,55.93
2022-09-18T08:15:11.875Z,55.37
2022-09-18T08:17:38.210Z,54.94
2022-09-18T08:20:04.624Z,53.44
2022-09-18T08:22:30.940Z,52.65
2022-09-18T08:24:57.288Z,51.96
2022-09-18T08:27:23.796Z,51.45
2022-09-18T08:29:50.115Z,50.98
2022-09-18T08:32:16.452Z,50.28
2022-09-18T08:34:42.835Z,50.23
2022-09-18T08:37:09.170Z,49.77
2022-09-18T08:39:35.488Z,49.54
2022-09-18T08:42:01.829Z,48.51
2022-09-18T08:44:28.169Z,46.99
2022-09-18T08:46:54.589Z,46.76
2022-09-18T08:49:20.843Z,47.45
2022-09-18T08:51:47.161Z,47.57
2022-09-18T08:54:13.484Z,48.00
2022-09-18T08:56:39.823Z,47.26
2022-09-18T08:59:06.140Z,46.51
2022-09-18T09:01:32.500Z,45.76
2022-09-18T09:03:58.820Z,44.78
2022-09-18T09:06:25.158Z,44.43
2022-09-18T09:08:51.515Z,43.72
2022-09-18T09:11:17.833Z,43.45
2022-09-18T09:13:44.154Z,42.68
2022-09-18T09:16:10.574Z,42.47
2022-09-18T09:18:36.837Z,42.10
2022-09-18T09:21:03.154Z,41.86
2022-09-18T09:23:29.547Z,43.43
2022-09-18T09:25:55.879Z,43.19
2022-09-18T09:28:22.205Z,42.33
2022-09-18T09:30:48.530Z,41.98
2022-09-18T09:33:14.871Z,41.42
2022-09-18T09:35:41.237Z,41.70
2022-09-18T09:38:07.582Z,42.36
2022-09-18T09:40:33.949Z,42.23
2022-09-18T09:43:00.249Z,42.72
2022-09-18T09:45:26.568Z,43.41
2022-09-18T09:47:52.887Z,43.75
2022-09-18T09:50:19.282Z,43.17
2022-09-18T09:52:45.581Z,43.64
2022-09-18T09:55:11.918Z,43.72
2022-09-18T09:57:38.272Z,44.06
2022-09-18T10:00:04.588Z,45.04
2022-09-18T10:02:31.007Z,44.37
2022-09-18T10:04:57.258Z,44.01
2022-09-18T10:07:23.579Z,44.16
2022-09-18T10:09:49.918Z,43.74
2022-09-18T10:12:16.275Z,44.03
2022-09-18T10:14:42.598Z,44.77
2022-09-18T10:17:08.967Z,44.96
2022-09-18T10:19:35.278Z,44.68
2022-09-18T10:22:01.604Z,44.98
2022-09-18T10:24:27.996Z,45.19
2022-09-18T10:26:54.337Z,45.18
2022-09-18T10:29:20.666Z,45.58
2022-09-18T10:31:47.064Z,45.68
2022-09-18T10:34:13.348Z,45.61
2022-09-18T10:36:39.704Z,45.84
2022-09-18T10:39:06.080Z,46.47
2022-09-18T10:41:32.394Z,46.52
2022-09-18T10:43:58.711Z,46.22
2022-09-18T10:46:25.101Z,45.09
2022-09-18T10:48:51.370Z,44.95
2022-09-18T10:51:17.749Z,44.39
2022-09-18T10:53:44.080Z,43.77
2022-09-18T10:56:10.403Z,43.44
2022-09-18T10:58:36.757Z,43.35
2022-09-18T11:01:03.265Z,43.33
2022-09-18T11:03:29.436Z,43.47
2022-09-18T11:05:55.831Z,43.68
2022-09-18T11:08:22.176Z,43.50
2022-09-18T11:10:48.514Z,43.25
2022-09-18T11:13:14.856Z,42.92
2022-09-18T11:15:41.164Z,42.89
2022-09-18T11:18:07.500Z,42.43
2022-09-18T11:20:33.861Z,42.01
2022-09-18T11:23:00.302Z,41.87
2022-09-18T11:25:26.662Z,42.43
2022-09-18T11:27:52.956Z,40.98
2022-09-18T11:30:19.273Z,41.10
2022-09-18T11:32:45.617Z,40.97
2022-09-18T11:35:11.956Z,40.93
2022-09-18T11:37:38.296Z,41.69
2022-09-18T11:40:04.660Z,45.28
2022-09-18T11:42:30.959Z,48.64
2022-09-18T11:44:57.271Z,48.36
2022-09-18T11:47:23.660Z,48.49
2022-09-18T11:49:49.991Z,49.19
2022-09-18T11:52:16.334Z,49.24
2022-09-18T11:54:42.651Z,49.14
2022-09-18T11:57:08.995Z,49.02
2022-09-18T11:59:35.326Z,51.12
2022-09-18T12:02:01.707Z,51.62
2022-09-18T12:04:28.037Z,52.54
2022-09-18T12:06:54.356Z,53.46
2022-09-18T12:09:19.317Z,53.83
2022-09-18T12:11:45.687Z,52.03
2022-09-18T12:14:12.001Z,52.16
2022-09-18T12:16:38.390Z,53.82
2022-09-18T12:19:04.671Z,54.09
2022-09-18T12:21:30.987Z,54.49
2022-09-18T12:23:57.335Z,53.43
2022-09-18T12:26:23.659Z,54.51
2022-09-18T12:28:49.988Z,55.17
2022-09-18T12:31:16.343Z,56.07
2022-09-18T12:33:42.680Z,55.93
2022-09-18T12:36:09.024Z,56.33
2022-09-18T12:38:35.357Z,55.73
2022-09-18T12:41:02.367Z,55.26
2022-09-18T12:43:28.701Z,54.25
2022-09-18T12:45:55.077Z,54.48
2022-09-18T12:48:21.389Z,54.18
2022-09-18T12:50:47.704Z,53.11
2022-09-18T12:53:14.018Z,53.00
2022-09-18T12:55:40.400Z,52.47
2022-09-18T12:58:06.740Z,53.50
2022-09-18T13:00:33.105Z,53.56
2022-09-18T13:02:59.464Z,51.33
2022-09-18T13:05:25.717Z,64.10
2022-09-18T13:07:52.034Z,63.61
2022-09-18T13:10:18.382Z,59.77
2022-09-18T13:12:44.716Z,58.42
2022-09-18T13:15:11.051Z,55.06
2022-09-18T13:17:38.133Z,54.47
2022-09-18T13:20:04.455Z,52.21
2022-09-18T13:22:30.791Z,51.59
2022-09-18T13:24:57.167Z,50.42
2022-09-18T13:27:23.476Z,50.43
2022-09-18T13:29:49.796Z,49.02
2022-09-18T13:32:16.144Z,50.21
2022-09-18T13:34:42.465Z,49.98
2022-09-18T13:37:08.809Z,49.94
2022-09-18T13:39:55.331Z,50.18
2022-09-18T13:42:01.459Z,51.06
2022-09-18T13:44:27.799Z,51.14
2022-09-18T13:46:54.133Z,50.41
2022-09-18T13:49:20.489Z,47.60
2022-09-18T13:51:46.798Z,47.63
2022-09-18T13:54:13.117Z,47.77
2022-09-18T13:56:39.527Z,47.77
2022-09-18T13:59:05.844Z,46.70
2022-09-18T14:01:32.198Z,47.98
2022-09-18T14:03:58.511Z,47.97
2022-09-18T14:06:24.844Z,47.39
2022-09-18T14:08:51.231Z,48.19
2022-09-18T14:11:17.703Z,48.13
2022-09-18T14:13:43.873Z,47.76
2022-09-18T14:16:10.208Z,47.48
2022-09-18T14:18:36.509Z,47.82
2022-09-18T14:21:02.824Z,47.51
2022-09-18T14:23:29.186Z,47.94
2022-09-18T14:25:55.503Z,47.75
2022-09-18T14:28:21.847Z,47.96
2022-09-18T14:30:48.163Z,47.63
2022-09-18T14:33:14.513Z,48.12
2022-09-18T14:35:40.846Z,49.53
2022-09-18T14:38:07.188Z,48.51
2022-09-18T14:40:33.598Z,48.15
2022-09-18T14:42:59.870Z,55.19
2022-09-18T14:45:26.233Z,54.50
2022-09-18T14:47:52.557Z,53.52
2022-09-18T14:50:18.890Z,53.55
2022-09-18T14:52:45.207Z,53.11
2022-09-18T14:55:11.566Z,52.38
2022-09-18T14:57:37.912Z,53.10
2022-09-18T15:00:04.256Z,52.82
2022-09-18T15:02:30.595Z,52.27
2022-09-18T15:04:56.970Z,52.60
2022-09-18T15:07:23.290Z,52.73
2022-09-18T15:09:49.607Z,52.54
2022-09-18T15:12:15.967Z,52.42
2022-09-18T15:14:47.316Z,57.21
2022-09-18T15:17:08.625Z,55.42
2022-09-18T15:19:34.956Z,54.89
2022-09-18T15:22:01.283Z,53.92
2022-09-18T15:24:27.603Z,53.39
2022-09-18T15:26:56.285Z,53.60
2022-09-18T15:29:20.270Z,53.38
2022-09-18T15:31:46.670Z,53.16
2022-09-18T15:34:12.981Z,53.36
2022-09-18T15:36:39.302Z,53.05
2022-09-18T15:39:05.681Z,52.68
2022-09-18T15:41:32.019Z,52.94
2022-09-18T15:43:58.341Z,52.87
2022-09-18T15:46:24.739Z,58.57
2022-09-18T15:48:51.031Z,57.65
2022-09-18T15:51:17.376Z,57.27
2022-09-18T15:53:43.695Z,56.65
2022-09-18T15:56:10.016Z,57.14
2022-09-18T15:58:36.364Z,55.57
2022-09-18T16:01:02.818Z,55.18
2022-09-18T16:03:29.072Z,54.76
2022-09-18T16:05:55.391Z,56.85
2022-09-18T16:08:21.750Z,55.81
2022-09-18T16:10:48.096Z,54.79
2022-09-18T16:13:14.411Z,54.30
2022-09-18T16:15:40.768Z,54.25
2022-09-18T16:18:07.107Z,54.01
2022-09-18T16:20:33.456Z,54.18
2022-09-18T16:22:59.822Z,54.36
2022-09-18T16:25:26.161Z,54.10
2022-09-18T16:27:52.477Z,53.83
2022-09-18T16:30:18.865Z,54.26
2022-09-18T16:32:45.178Z,53.99
2022-09-18T16:35:11.499Z,54.14
2022-09-18T16:37:37.862Z,54.40
2022-09-18T16:40:04.298Z,60.23
2022-09-18T16:42:30.523Z,57.81
2022-09-18T16:44:56.851Z,57.17
2022-09-18T16:47:23.193Z,56.75
2022-09-18T16:49:49.573Z,56.29
2022-09-18T16:52:15.896Z,56.07
2022-09-18T16:54:42.218Z,55.93
2022-09-18T16:57:08.555Z,55.63
2022-09-18T16:59:34.878Z,55.98
2022-09-18T17:02:05.123Z,55.87
2022-09-18T17:04:27.557Z,56.12
2022-09-18T17:06:53.870Z,56.46
2022-09-18T17:09:20.205Z,56.08
2022-09-18T17:11:46.519Z,55.78
2022-09-18T17:14:12.885Z,62.04
2022-09-18T17:16:44.633Z,65.07
2022-09-18T17:19:05.533Z,58.50
2022-09-18T17:21:31.852Z,57.56
2022-09-18T17:23:58.182Z,57.16
2022-09-18T17:26:24.548Z,56.60
2022-09-18T17:28:50.889Z,56.17
2022-09-18T17:31:17.282Z,56.78
2022-09-18T17:33:43.577Z,56.86
2022-09-18T17:36:09.895Z,56.64
2022-09-18T17:38:36.229Z,56.30
2022-09-18T17:41:02.587Z,56.14
2022-09-18T17:43:28.928Z,55.81
2022-09-18T17:45:55.245Z,56.18
2022-09-18T17:48:21.573Z,56.34
2022-09-18T17:50:47.894Z,56.31
2022-09-18T17:53:14.239Z,56.32
2022-09-18T17:55:40.605Z,56.33
2022-09-18T17:58:06.945Z,56.07
2022-09-18T18:00:33.305Z,56.15
2022-09-18T18:02:59.669Z,56.43
2022-09-18T18:05:26.000Z,56.35
2022-09-18T18:07:52.338Z,56.53
2022-09-18T18:10:18.714Z,56.37
2022-09-18T18:12:45.032Z,56.58
2022-09-18T18:15:11.351Z,56.49
2022-09-18T18:17:37.674Z,56.75
2022-09-18T18:20:03.989Z,57.17
2022-09-18T18:22:30.333Z,57.51
2022-09-18T18:24:56.673Z,57.39
2022-09-18T18:27:22.994Z,57.41
2022-09-18T18:29:49.373Z,57.77
2022-09-18T18:32:15.719Z,57.40
2022-09-18T18:34:42.055Z,57.72
2022-09-18T18:37:08.380Z,57.38
2022-09-18T18:39:34.717Z,57.81
2022-09-18T18:42:01.040Z,57.75
2022-09-18T18:44:27.643Z,57.63
2022-09-18T18:46:54.006Z,57.72
2022-09-18T18:49:20.299Z,58.00
2022-09-18T18:51:46.662Z,58.16
2022-09-18T18:54:12.999Z,58.21
2022-09-18T18:56:39.318Z,58.32
2022-09-18T18:59:05.660Z,58.30
2022-09-18T19:01:32.250Z,58.47
2022-09-18T19:03:58.311Z,58.30
2022-09-18T19:06:24.653Z,58.53
2022-09-18T19:08:50.986Z,58.43
2022-09-18T19:11:17.330Z,58.41
2022-09-18T19:13:43.650Z,59.12
2022-09-18T19:16:10.023Z,59.64
2022-09-18T19:18:36.321Z,59.78
2022-09-18T19:21:02.637Z,60.36
2022-09-18T19:23:28.996Z,60.10
2022-09-18T19:25:55.316Z,60.22
2022-09-18T19:28:21.628Z,60.61
2022-09-18T19:30:48.013Z,60.70
2022-09-18T19:33:14.325Z,60.99
2022-09-18T19:35:40.666Z,61.30
2022-09-18T19:38:06.982Z,61.71
2022-09-18T19:40:33.424Z,61.60
2022-09-18T19:42:59.642Z,61.60
2022-09-18T19:45:25.999Z,61.81
2022-09-18T19:47:52.314Z,61.92
2022-09-18T19:50:18.655Z,62.08
2022-09-18T19:52:46.755Z,61.99
2022-09-18T19:55:11.347Z,62.23
2022-09-18T19:57:37.684Z,62.42
2022-09-18T20:00:04.070Z,62.34
2022-09-18T20:02:30.405Z,62.50
2022-09-18T20:04:56.726Z,62.93
2022-09-18T20:07:23.067Z,62.86
2022-09-18T20:09:49.422Z,62.85
2022-09-18T20:12:15.740Z,62.73
2022-09-18T20:14:42.066Z,62.98
2022-09-18T20:17:08.409Z,63.27
2022-09-18T20:19:34.726Z,63.24
2022-09-18T20:22:01.070Z,63.30
2022-09-18T20:24:27.405Z,63.64
2022-09-18T20:26:53.750Z,63.83
2022-09-18T20:29:20.096Z,63.67
2022-09-18T20:31:46.466Z,64.07
2022-09-18T20:34:12.748Z,64.45
2022-09-18T20:36:39.068Z,64.84
2022-09-18T20:39:05.393Z,64.64
2022-09-18T20:41:31.716Z,63.74
2022-09-18T20:43:58.071Z,64.02
2022-09-18T20:46:24.445Z,64.20
2022-09-18T20:48:50.725Z,64.06
2022-09-18T20:51:17.104Z,64.57
2022-09-18T20:53:43.423Z,64.64
2022-09-18T20:56:09.740Z,64.36
2022-09-18T20:58:36.100Z,64.80
2022-09-18T21:01:02.475Z,64.63
2022-09-18T21:03:28.775Z,64.66
2022-09-18T21:06:12.702Z,65.17
2022-09-18T21:08:21.412Z,65.36
2022-09-18T21:10:47.731Z,65.10
2022-09-18T21:13:14.115Z,65.12
2022-09-18T21:15:40.450Z,65.20
2022-09-18T21:18:06.774Z,65.45
2022-09-18T21:20:33.114Z,65.87
2022-09-18T21:22:59.501Z,65.97
2022-09-18T21:25:25.836Z,66.16
2022-09-18T21:27:52.154Z,66.44
2022-09-18T21:30:18.473Z,66.50
2022-09-18T21:32:44.834Z,66.82
2022-09-18T21:35:11.212Z,67.03
2022-09-18T21:37:37.522Z,67.23
2022-09-18T21:40:03.924Z,67.37
2022-09-18T21:42:30.181Z,67.36
2022-09-18T21:44:56.497Z,67.58
2022-09-18T21:47:22.815Z,67.76
2022-09-18T21:49:49.176Z,67.73
2022-09-18T21:52:15.512Z,68.00
2022-09-18T21:54:41.835Z,68.16
2022-09-18T21:57:08.171Z,67.94
2022-09-18T21:59:34.507Z,68.05
2022-09-18T22:02:00.921Z,68.43
2022-09-18T22:04:27.202Z,68.78
2022-09-18T22:06:53.527Z,68.91
2022-09-18T22:09:19.838Z,69.19
2022-09-18T22:11:46.194Z,69.30
2022-09-18T22:14:12.519Z,69.12
2022-09-18T22:16:38.897Z,68.82
2022-09-18T22:19:05.309Z,68.49
2022-09-18T22:21:31.570Z,68.33
2022-09-18T22:23:57.911Z,68.24
2022-09-18T22:26:24.250Z,68.32
2022-09-18T22:28:50.661Z,68.05
2022-09-18T22:31:16.973Z,67.62
2022-09-18T22:33:43.233Z,68.09
2022-09-18T22:36:09.572Z,68.54
2022-09-18T22:38:35.930Z,68.34
2022-09-18T22:41:02.272Z,68.85
2022-09-18T22:43:28.592Z,68.83
2022-09-18T22:45:54.934Z,68.45
2022-09-18T22:48:21.271Z,68.55
2022-09-18T22:50:47.609Z,68.64
2022-09-18T22:53:13.931Z,69.01
2022-09-18T22:55:40.245Z,69.18
2022-09-18T22:58:06.593Z,69.34
2022-09-18T23:00:32.928Z,68.84
2022-09-18T23:02:59.268Z,68.98
2022-09-18T23:05:25.607Z,69.20
2022-09-18T23:07:51.965Z,69.37
2022-09-18T23:10:18.303Z,69.28
2022-09-18T23:12:44.620Z,69.57
2022-09-18T23:15:10.962Z,69.18
2022-09-18T23:17:37.278Z,69.11
2022-09-18T23:20:03.606Z,69.18
2022-09-18T23:22:29.937Z,68.37
2022-09-18T23:24:56.280Z,67.84
2022-09-18T23:27:22.615Z,68.06
2022-09-18T23:29:48.950Z,68.18
2022-09-18T23:32:15.266Z,68.66
2022-09-18T23:34:41.622Z,69.11
2022-09-18T23:37:07.943Z,69.58
2022-09-18T23:39:34.279Z,69.75
2022-09-18T23:42:00.639Z,70.14
2022-09-18T23:44:26.919Z,70.26
2022-09-18T23:46:53.319Z,70.36
2022-09-18T23:49:19.580Z,70.49
2022-09-18T23:51:45.901Z,70.79
2022-09-18T23:54:12.241Z,70.92
2022-09-18T23:56:38.577Z,71.10
2022-09-18T23:59:04.914Z,71.31
